createdAt,value
2023-06-19T00:01:12.991Z,99696.41
2023-06-19T00:03:40.706Z,99702.34
2023-06-19T00:06:08.112Z,99694.59
2023-06-19T00:08:36.696Z,99700.94
2023-06-19T00:11:04.371Z,99699.31
2023-06-19T00:13:31.814Z,99708.31
2023-06-19T00:16:01.391Z,99705.16
2023-06-19T00:18:29.558Z,99707.84
2023-06-19T00:20:57.815Z,99702.06
2023-06-19T00:23:25.246Z,99701.59
2023-06-19T00:25:52.903Z,99703.06
2023-06-19T00:28:22.555Z,99699.03
2023-06-19T00:30:50.035Z,99707.53
2023-06-19T00:33:17.730Z,99702.19
2023-06-19T00:35:45.942Z,99702.53
2023-06-19T00:38:13.340Z,99699.59
2023-06-19T00:40:41.157Z,99693.31
2023-06-19T00:43:10.052Z,99692.09
2023-06-19T00:45:37.477Z,99697.97
2023-06-19T00:48:05.444Z,99695.16
2023-06-19T00:50:32.884Z,99698.25
2023-06-19T00:53:00.891Z,99697.25
2023-06-19T00:55:31.349Z,99696.31
2023-06-19T00:57:59.311Z,99698.53
2023-06-19T01:00:26.841Z,99696.59
2023-06-19T01:02:54.592Z,99696.37
2023-06-19T01:05:22.494Z,99697.06
2023-06-19T01:08:11.087Z,99693.66
2023-06-19T01:10:41.092Z,99697.00
2023-06-19T01:13:13.136Z,99692.12
2023-06-19T01:15:41.897Z,99681.69
2023-06-19T01:18:09.431Z,99684.75
2023-06-19T01:20:36.914Z,99686.03
2023-06-19T01:23:10.995Z,99696.31
2023-06-19T01:25:38.719Z,99683.56
2023-06-19T01:28:10.649Z,99685.78
2023-06-19T01:30:39.228Z,99685.03
2023-06-19T01:33:15.803Z,99680.91
2023-06-19T01:35:43.334Z,99687.56
2023-06-19T01:38:11.322Z,99678.22
2023-06-19T01:40:38.754Z,99679.16
2023-06-19T01:43:06.356Z,99672.81
2023-06-19T01:45:34.070Z,99668.03
2023-06-19T01:48:01.481Z,99673.56
2023-06-19T01:50:28.976Z,99665.78
2023-06-19T01:52:56.659Z,99667.00
2023-06-19T01:55:24.126Z,99665.34
2023-06-19T01:57:51.527Z,99670.88
2023-06-19T02:00:19.574Z,99673.72
2023-06-19T02:02:47.354Z,99667.16
2023-06-19T02:05:14.995Z,99673.94
2023-06-19T02:07:42.562Z,99675.09
2023-06-19T02:10:10.507Z,99670.03
2023-06-19T02:12:38.075Z,99678.16
2023-06-19T02:15:06.572Z,99673.47
2023-06-19T02:17:34.633Z,99673.25
2023-06-19T02:20:08.827Z,99682.38
2023-06-19T02:22:36.312Z,99679.47
2023-06-19T02:25:04.268Z,99679.47
2023-06-19T02:27:31.814Z,99677.72
2023-06-19T02:30:00.246Z,99681.34
2023-06-19T02:32:28.055Z,99674.19
2023-06-19T02:34:56.434Z,99677.34
2023-06-19T02:37:23.894Z,99676.41
2023-06-19T02:39:51.588Z,99680.50
2023-06-19T02:42:19.016Z,99678.06
2023-06-19T02:44:46.843Z,99685.44
2023-06-19T02:47:14.516Z,99683.09
2023-06-19T02:49:41.947Z,99683.41
2023-06-19T02:52:09.500Z,99690.00
2023-06-19T02:54:37.170Z,99690.13
2023-06-19T02:57:04.787Z,99681.91
2023-06-19T02:59:32.232Z,99690.41
2023-06-19T03:01:59.902Z,99688.50
2023-06-19T03:04:29.330Z,99685.22
2023-06-19T03:06:57.218Z,99684.22
2023-06-19T03:09:24.980Z,99677.94
2023-06-19T03:11:52.682Z,99687.78
2023-06-19T03:14:20.094Z,99685.31
2023-06-19T03:16:48.260Z,99688.44
2023-06-19T03:19:15.947Z,99691.31
2023-06-19T03:21:43.409Z,99694.78
2023-06-19T03:24:12.011Z,99702.47
2023-06-19T03:26:39.508Z,99695.38
2023-06-19T03:29:07.533Z,99694.50
2023-06-19T03:31:36.073Z,99692.31
2023-06-19T03:34:03.721Z,99694.94
2023-06-19T03:36:31.233Z,99697.94
2023-06-19T03:39:00.600Z,99705.41
2023-06-19T03:41:28.704Z,99710.87
2023-06-19T03:43:56.274Z,99704.97
2023-06-19T03:46:24.691Z,99699.88
2023-06-19T03:48:52.882Z,99695.84
2023-06-19T03:51:20.287Z,99693.97
2023-06-19T03:53:48.003Z,99692.72
2023-06-19T03:56:18.310Z,99703.81
2023-06-19T03:58:45.742Z,99698.72
2023-06-19T04:01:13.535Z,99701.91
2023-06-19T04:03:42.263Z,99698.28
2023-06-19T04:06:09.892Z,99696.13
2023-06-19T04:08:39.979Z,99697.16
2023-06-19T04:11:07.653Z,99695.59
2023-06-19T04:13:35.075Z,99702.63
2023-06-19T04:16:02.529Z,99691.72
2023-06-19T04:18:30.306Z,99697.81
2023-06-19T04:20:57.785Z,99695.13
2023-06-19T04:23:25.209Z,99695.97
2023-06-19T04:25:52.946Z,99692.78
2023-06-19T04:28:20.385Z,99690.50
2023-06-19T04:30:47.855Z,99693.91
2023-06-19T04:33:15.624Z,99692.44
2023-06-19T04:35:43.039Z,99684.53
2023-06-19T04:38:10.677Z,99685.41
2023-06-19T04:40:38.390Z,99680.87
2023-06-19T04:43:07.170Z,99682.25
2023-06-19T04:45:34.734Z,99680.37
2023-06-19T04:48:04.506Z,99680.44
2023-06-19T04:50:32.142Z,99671.63
2023-06-19T04:52:59.577Z,99663.31
2023-06-19T04:55:27.356Z,99656.03
2023-06-19T04:57:54.729Z,99660.16
2023-06-19T05:00:24.558Z,99659.53
2023-06-19T05:02:52.670Z,99656.81
2023-06-19T05:05:23.186Z,99657.66
2023-06-19T05:07:52.446Z,99656.31
2023-06-19T05:10:20.394Z,99649.87
2023-06-19T05:12:47.939Z,99654.34
2023-06-19T05:15:15.664Z,99656.75
2023-06-19T05:17:43.189Z,99657.50
2023-06-19T05:20:12.910Z,99646.59
2023-06-19T05:22:40.624Z,99653.69
2023-06-19T05:25:08.393Z,99652.50
2023-06-19T05:27:35.791Z,99653.22
2023-06-19T05:30:05.229Z,99659.56
2023-06-19T05:32:32.728Z,99661.72
2023-06-19T05:35:00.191Z,99666.16
2023-06-19T05:37:28.395Z,99671.41
2023-06-19T05:39:55.953Z,99672.09
2023-06-19T05:42:23.426Z,99673.22
2023-06-19T05:44:51.082Z,99676.66
2023-06-19T05:47:20.620Z,99662.06
2023-06-19T05:49:48.276Z,99670.50
2023-06-19T05:52:15.921Z,99670.59
2023-06-19T05:54:43.433Z,99683.63
2023-06-19T05:57:10.846Z,99663.75
2023-06-19T05:59:38.741Z,99658.06
2023-06-19T06:02:07.317Z,99670.81
2023-06-19T06:04:38.371Z,99658.87
2023-06-19T06:07:09.208Z,99665.47
2023-06-19T06:09:36.919Z,99662.25
2023-06-19T06:12:05.365Z,99668.66
2023-06-19T06:14:32.744Z,99659.72
2023-06-19T06:17:00.664Z,99661.81
2023-06-19T06:19:28.151Z,99672.22
2023-06-19T06:21:55.671Z,99676.09
2023-06-19T06:24:23.394Z,99674.94
2023-06-19T06:26:50.844Z,99671.97
2023-06-19T06:29:18.226Z,99670.66
2023-06-19T06:31:47.248Z,99672.22
2023-06-19T06:34:14.727Z,99664.44
2023-06-19T06:36:52.826Z,99664.88
2023-06-19T06:39:29.221Z,99668.78
2023-06-19T06:41:56.656Z,99671.09
2023-06-19T06:44:24.101Z,99668.75
2023-06-19T06:46:54.778Z,99679.88
2023-06-19T06:49:23.364Z,99681.84
2023-06-19T06:51:50.823Z,99680.00
2023-06-19T06:54:18.484Z,99670.66
2023-06-19T06:56:48.951Z,99666.97
2023-06-19T06:59:16.925Z,99674.63
2023-06-19T07:01:44.605Z,99669.53
2023-06-19T07:04:11.995Z,99667.44
2023-06-19T07:06:39.410Z,99668.88
2023-06-19T07:09:07.063Z,99666.44
2023-06-19T07:11:34.522Z,99674.91
2023-06-19T07:14:03.025Z,99672.84
2023-06-19T07:16:32.850Z,99666.59
2023-06-19T07:19:00.303Z,99663.44
2023-06-19T07:21:28.605Z,99652.34
2023-06-19T07:23:56.344Z,99661.19
2023-06-19T07:26:23.983Z,99668.94
2023-06-19T07:28:51.414Z,99658.03
2023-06-19T07:31:19.078Z,99653.59
2023-06-19T07:33:46.474Z,99663.44
2023-06-19T07:36:15.250Z,99678.47
2023-06-19T07:38:43.578Z,99666.78
2023-06-19T07:41:12.133Z,99659.84
2023-06-19T07:43:39.591Z,99663.13
2023-06-19T07:46:07.339Z,99661.81
2023-06-19T07:48:34.775Z,99655.16
2023-06-19T07:51:02.185Z,99658.66
2023-06-19T07:53:29.864Z,99661.62
2023-06-19T07:55:57.264Z,99655.66
2023-06-19T07:58:24.657Z,99655.59
2023-06-19T08:00:52.365Z,99650.44
2023-06-19T08:03:20.158Z,99658.75
2023-06-19T08:05:47.724Z,99650.97
2023-06-19T08:08:15.139Z,99652.59
2023-06-19T08:10:42.786Z,99640.19
2023-06-19T08:13:12.301Z,99648.59
2023-06-19T08:15:39.785Z,99660.38
2023-06-19T08:18:07.612Z,99648.81
2023-06-19T08:20:35.072Z,99646.91
2023-06-19T08:23:03.851Z,99649.19
2023-06-19T08:25:33.500Z,99654.81
2023-06-19T08:28:01.286Z,99651.88
2023-06-19T08:30:29.211Z,99640.25
2023-06-19T08:32:57.284Z,99636.16
2023-06-19T08:35:26.808Z,99635.91
2023-06-19T08:37:54.217Z,99654.00
2023-06-19T08:40:22.084Z,99654.75
2023-06-19T08:42:49.591Z,99652.44
2023-06-19T08:45:19.728Z,99652.22
2023-06-19T08:47:48.983Z,99650.37
2023-06-19T08:50:17.214Z,99652.00
2023-06-19T08:52:44.593Z,99654.66
2023-06-19T08:55:12.668Z,99644.41
2023-06-19T08:57:40.409Z,99642.47
2023-06-19T09:00:09.263Z,99641.59
2023-06-19T09:02:44.363Z,99647.78
2023-06-19T09:05:13.532Z,99640.72
2023-06-19T09:07:41.413Z,99632.66
2023-06-19T09:10:19.003Z,99628.37
2023-06-19T09:13:00.551Z,99635.28
2023-06-19T09:15:29.306Z,99633.38
2023-06-19T09:18:11.099Z,99634.16
2023-06-19T09:20:41.474Z,99638.16
2023-06-19T09:23:09.127Z,99642.47
2023-06-19T09:25:56.474Z,99644.25
2023-06-19T09:28:28.327Z,99654.78
2023-06-19T09:30:57.447Z,99653.34
2023-06-19T09:33:29.557Z,99637.66
2023-06-19T09:35:57.848Z,99641.97
2023-06-19T09:38:30.177Z,99655.47
2023-06-19T09:40:59.480Z,99638.62
2023-06-19T09:43:50.456Z,99629.09
2023-06-19T09:46:18.375Z,99635.56
2023-06-19T09:48:47.474Z,99621.66
2023-06-19T09:51:23.511Z,99622.84
2023-06-19T09:53:52.698Z,99638.00
2023-06-19T09:56:23.603Z,99628.59
2023-06-19T09:58:52.576Z,99616.72
2023-06-19T10:01:20.225Z,99610.31
2023-06-19T10:03:47.915Z,99610.28
2023-06-19T10:06:17.024Z,99600.19
2023-06-19T10:08:46.719Z,99602.44
2023-06-19T10:11:14.510Z,99594.28
2023-06-19T10:13:42.556Z,99599.63
2023-06-19T10:16:23.263Z,99596.53
2023-06-19T10:18:51.358Z,99593.38
2023-06-19T10:21:22.465Z,99598.25
2023-06-19T10:23:57.111Z,99586.69
2023-06-19T10:26:32.790Z,99590.19
2023-06-19T10:29:00.460Z,99580.97
2023-06-19T10:31:29.877Z,99586.50
2023-06-19T10:33:57.455Z,99577.69
2023-06-19T10:36:26.927Z,99579.66
2023-06-19T10:38:55.399Z,99598.00
2023-06-19T10:41:24.253Z,99587.16
2023-06-19T10:43:59.412Z,99588.44
2023-06-19T10:46:33.622Z,99582.87
2023-06-19T10:49:05.906Z,99589.09
2023-06-19T10:51:40.771Z,99588.66
2023-06-19T10:54:08.727Z,99594.38
2023-06-19T10:56:36.470Z,99594.12
2023-06-19T10:59:10.928Z,99595.94
2023-06-19T11:01:39.144Z,99607.75
2023-06-19T11:04:07.608Z,99604.69
2023-06-19T11:06:38.253Z,99602.09
2023-06-19T11:09:09.573Z,99611.94
2023-06-19T11:11:47.728Z,99608.47
2023-06-19T11:14:16.617Z,99608.41
2023-06-19T11:16:46.399Z,99609.00
2023-06-19T11:19:21.271Z,99606.47
2023-06-19T11:21:50.212Z,99610.59
2023-06-19T11:24:17.757Z,99614.69
2023-06-19T11:26:52.383Z,99618.84
2023-06-19T11:29:23.983Z,99623.84
2023-06-19T11:31:51.801Z,99618.69
2023-06-19T11:34:21.090Z,99619.00
2023-06-19T11:36:51.496Z,99617.31
2023-06-19T11:39:19.276Z,99612.94
2023-06-19T11:41:46.738Z,99610.97
2023-06-19T11:44:14.563Z,99612.22
2023-06-19T11:46:43.225Z,99615.16
2023-06-19T11:49:14.825Z,99609.59
2023-06-19T11:51:42.665Z,99610.06
2023-06-19T11:54:11.516Z,99599.22
2023-06-19T11:56:39.458Z,99600.25
2023-06-19T11:59:07.236Z,99601.09
2023-06-19T12:01:35.351Z,99603.91
2023-06-19T12:04:03.674Z,99602.78
2023-06-19T12:06:31.258Z,99601.69
2023-06-19T12:08:58.726Z,99606.72
2023-06-19T12:11:26.447Z,99602.28
2023-06-19T12:13:58.784Z,99598.81
2023-06-19T12:16:26.857Z,99588.19
2023-06-19T12:18:54.539Z,99586.50
2023-06-19T12:21:33.847Z,99585.28
2023-06-19T12:24:04.115Z,99600.47
2023-06-19T12:26:31.592Z,99586.38
2023-06-19T12:28:59.048Z,99582.53
2023-06-19T12:31:26.839Z,99586.22
2023-06-19T12:33:54.353Z,99581.66
2023-06-19T12:36:21.782Z,99573.50
2023-06-19T12:38:50.130Z,99577.94
2023-06-19T12:41:17.510Z,99578.72
2023-06-19T12:43:44.938Z,99575.00
2023-06-19T12:46:12.903Z,99564.25
2023-06-19T12:48:40.309Z,99563.62
2023-06-19T12:51:07.716Z,99563.56
2023-06-19T12:53:35.340Z,99569.78
2023-06-19T12:56:05.956Z,99569.38
2023-06-19T12:58:36.872Z,99555.03
2023-06-19T13:01:04.295Z,99557.78
2023-06-19T13:03:31.831Z,99556.06
2023-06-19T13:05:59.596Z,99560.22
2023-06-19T13:08:27.039Z,99566.87
2023-06-19T13:10:54.419Z,99567.25
2023-06-19T13:13:22.132Z,99557.34
2023-06-19T13:15:49.631Z,99550.34
2023-06-19T13:18:18.656Z,99549.09
2023-06-19T13:20:49.021Z,99544.37
2023-06-19T13:23:16.424Z,99542.59
2023-06-19T13:25:43.863Z,99538.75
2023-06-19T13:28:11.540Z,99537.41
2023-06-19T13:30:39.157Z,99542.41
2023-06-19T13:33:06.611Z,99539.97
2023-06-19T13:35:34.734Z,99545.84
2023-06-19T13:38:02.217Z,99549.38
2023-06-19T13:40:29.647Z,99542.44
2023-06-19T13:42:57.297Z,99536.94
2023-06-19T13:45:24.797Z,99548.19
2023-06-19T13:47:52.384Z,99545.63
2023-06-19T13:50:20.121Z,99542.69
2023-06-19T13:52:47.556Z,99547.56
2023-06-19T13:55:18.306Z,99544.66
2023-06-19T13:57:45.987Z,99546.44
2023-06-19T14:00:14.052Z,99539.88
2023-06-19T14:02:42.112Z,99539.50
2023-06-19T14:05:10.024Z,99540.34
2023-06-19T14:07:37.473Z,99547.12
2023-06-19T14:10:06.021Z,99547.41
2023-06-19T14:12:33.457Z,99539.75
2023-06-19T14:15:00.997Z,99539.22
2023-06-19T14:17:29.514Z,99528.63
2023-06-19T14:19:58.120Z,99534.44
2023-06-19T14:22:25.564Z,99531.13
2023-06-19T14:25:00.360Z,99532.34
2023-06-19T14:27:27.864Z,99526.50
2023-06-19T14:29:55.946Z,99526.19
2023-06-19T14:32:24.579Z,99527.78
2023-06-19T14:34:52.101Z,99525.38
2023-06-19T14:37:19.822Z,99527.00
2023-06-19T14:39:47.264Z,99524.34
2023-06-19T14:42:14.788Z,99533.16
2023-06-19T14:44:42.458Z,99527.53
2023-06-19T14:47:09.971Z,99527.66
2023-06-19T14:49:37.614Z,99526.63
2023-06-19T14:52:06.454Z,99524.03
2023-06-19T14:54:33.854Z,99532.09
2023-06-19T14:57:01.300Z,99526.84
2023-06-19T14:59:29.003Z,99524.59
2023-06-19T15:01:56.408Z,99529.81
2023-06-19T15:04:24.280Z,99526.78
2023-06-19T15:06:51.984Z,99527.50
2023-06-19T15:09:19.461Z,99518.66
2023-06-19T15:11:46.891Z,99512.38
2023-06-19T15:14:14.549Z,99519.66
2023-06-19T15:16:41.977Z,99523.84
2023-06-19T15:19:09.492Z,99522.13
2023-06-19T15:21:37.173Z,99513.28
2023-06-19T15:24:04.655Z,99514.53
2023-06-19T15:26:32.236Z,99521.13
2023-06-19T15:28:59.889Z,99521.53
2023-06-19T15:31:27.255Z,99523.56
2023-06-19T15:33:54.768Z,99525.62
2023-06-19T15:36:22.479Z,99525.72
2023-06-19T15:38:49.989Z,99518.50
2023-06-19T15:41:17.349Z,99523.19
2023-06-19T15:43:45.282Z,99519.31
2023-06-19T15:46:15.122Z,99518.59
2023-06-19T15:48:43.220Z,99519.31
2023-06-19T15:51:11.418Z,99518.19
2023-06-19T15:53:39.386Z,99521.56
2023-06-19T15:56:06.963Z,99519.94
2023-06-19T15:58:34.777Z,99517.19
2023-06-19T16:01:02.201Z,99516.31
2023-06-19T16:03:32.851Z,99529.31
2023-06-19T16:06:07.214Z,99516.31
2023-06-19T16:08:36.451Z,99530.91
2023-06-19T16:11:05.715Z,99522.75
2023-06-19T16:13:33.648Z,99525.09
2023-06-19T16:16:01.371Z,99524.12
2023-06-19T16:18:28.885Z,99522.56
2023-06-19T16:20:56.290Z,99530.28
2023-06-19T16:23:23.989Z,99535.44
2023-06-19T16:25:51.351Z,99537.19
2023-06-19T16:28:18.767Z,99534.97
2023-06-19T16:30:46.464Z,99536.97
2023-06-19T16:33:13.917Z,99533.78
2023-06-19T16:35:41.377Z,99532.12
2023-06-19T16:38:08.990Z,99533.53
2023-06-19T16:40:36.431Z,99542.78
2023-06-19T16:43:03.804Z,99533.63
2023-06-19T16:45:31.477Z,99526.06
2023-06-19T16:47:59.123Z,99532.75
2023-06-19T16:50:27.450Z,99534.88
2023-06-19T16:52:55.399Z,99536.78
2023-06-19T16:55:23.857Z,99544.28
2023-06-19T16:57:51.248Z,99537.84
2023-06-19T17:00:19.889Z,99535.47
2023-06-19T17:02:48.549Z,99541.59
2023-06-19T17:05:16.040Z,99530.16
2023-06-19T17:07:43.747Z,99529.28
2023-06-19T17:10:13.582Z,99524.84
2023-06-19T17:12:41.019Z,99531.00
2023-06-19T17:15:09.160Z,99542.91
2023-06-19T17:17:36.798Z,99537.53
2023-06-19T17:20:05.955Z,99545.09
2023-06-19T17:22:33.720Z,99538.13
2023-06-19T17:25:01.076Z,99541.28
2023-06-19T17:27:28.503Z,99540.41
2023-06-19T17:29:56.141Z,99537.41
2023-06-19T17:32:23.618Z,99537.13
2023-06-19T17:34:51.011Z,99540.38
2023-06-19T17:37:18.830Z,99546.13
2023-06-19T17:39:46.194Z,99544.50
2023-06-19T17:42:13.565Z,99550.25
2023-06-19T17:44:41.221Z,99554.25
2023-06-19T17:47:08.706Z,99549.19
2023-06-19T17:49:36.127Z,99553.38
2023-06-19T17:52:03.983Z,99556.38
2023-06-19T17:54:31.517Z,99559.56
2023-06-19T17:56:58.908Z,99564.00
2023-06-19T17:59:26.585Z,99565.66
2023-06-19T18:01:54.025Z,99566.16
2023-06-19T18:04:21.664Z,99572.91
2023-06-19T18:06:49.121Z,99561.69
2023-06-19T18:09:16.567Z,99569.50
2023-06-19T18:11:44.197Z,99567.78
2023-06-19T18:14:11.597Z,99578.22
2023-06-19T18:16:39.074Z,99567.06
2023-06-19T18:19:06.790Z,99572.06
2023-06-19T18:21:34.244Z,99570.41
2023-06-19T18:24:04.922Z,99578.25
2023-06-19T18:26:33.094Z,99585.22
2023-06-19T18:29:01.157Z,99580.66
2023-06-19T18:31:28.577Z,99584.38
2023-06-19T18:33:56.809Z,99589.56
2023-06-19T18:36:25.343Z,99581.78
2023-06-19T18:38:52.798Z,99589.56
2023-06-19T18:41:20.506Z,99582.81
2023-06-19T18:43:47.918Z,99595.16
2023-06-19T18:46:15.390Z,99591.31
2023-06-19T18:48:43.747Z,99591.44
2023-06-19T18:51:11.268Z,99591.44
2023-06-19T18:53:38.724Z,99594.94
2023-06-19T18:56:06.502Z,99596.69
2023-06-19T18:58:33.967Z,99595.16
2023-06-19T19:01:03.141Z,99609.41
2023-06-19T19:03:33.856Z,99620.28
2023-06-19T19:06:01.408Z,99609.00
2023-06-19T19:08:28.779Z,99606.78
2023-06-19T19:10:57.266Z,99618.06
2023-06-19T19:13:24.747Z,99617.72
2023-06-19T19:15:52.203Z,99626.66
2023-06-19T19:18:19.856Z,99633.22
2023-06-19T19:20:47.399Z,99633.97
2023-06-19T19:23:14.847Z,99638.16
2023-06-19T19:25:42.513Z,99640.34
2023-06-19T19:28:14.794Z,99651.09
2023-06-19T19:30:42.855Z,99638.34
2023-06-19T19:33:10.461Z,99643.59
2023-06-19T19:35:38.007Z,99648.13
2023-06-19T19:38:05.659Z,99648.75
2023-06-19T19:40:33.040Z,99647.53
2023-06-19T19:43:01.602Z,99654.56
2023-06-19T19:45:29.286Z,99654.50
2023-06-19T19:47:56.792Z,99653.06
2023-06-19T19:50:24.347Z,99660.69
2023-06-19T19:52:52.265Z,99662.75
2023-06-19T19:55:19.735Z,99663.78
2023-06-19T19:57:47.143Z,99664.28
2023-06-19T20:00:15.436Z,99667.78
2023-06-19T20:02:43.491Z,99670.53
2023-06-19T20:05:10.932Z,99671.03
2023-06-19T20:07:38.407Z,99666.69
2023-06-19T20:10:06.920Z,99674.66
2023-06-19T20:12:34.329Z,99669.66
2023-06-19T20:15:02.896Z,99677.06
2023-06-19T20:17:32.109Z,99670.59
2023-06-19T20:19:59.520Z,99675.19
2023-06-19T20:22:26.904Z,99671.09
2023-06-19T20:24:54.592Z,99670.78
2023-06-19T20:27:22.890Z,99675.72
2023-06-19T20:29:50.272Z,99674.47
2023-06-19T20:32:17.958Z,99678.28
2023-06-19T20:34:45.450Z,99681.00
2023-06-19T20:37:12.937Z,99684.81
2023-06-19T20:39:40.807Z,99684.81
2023-06-19T20:42:08.531Z,99681.25
2023-06-19T20:44:37.561Z,99684.56
2023-06-19T20:47:05.834Z,99684.25
2023-06-19T20:49:33.206Z,99695.13
2023-06-19T20:52:00.612Z,99690.22
2023-06-19T20:54:28.289Z,99692.44
2023-06-19T20:56:55.681Z,99699.22
2023-06-19T20:59:23.117Z,99699.78
2023-06-19T21:01:50.876Z,99701.94
2023-06-19T21:04:18.355Z,99703.84
2023-06-19T21:06:46.012Z,99707.41
2023-06-19T21:09:15.350Z,99697.84
2023-06-19T21:11:44.324Z,99695.13
2023-06-19T21:14:11.756Z,99699.78
2023-06-19T21:16:39.512Z,99705.63
2023-06-19T21:19:06.966Z,99706.13
2023-06-19T21:21:34.348Z,99711.44
2023-06-19T21:24:02.059Z,99707.41
2023-06-19T21:26:29.495Z,99710.78
2023-06-19T21:28:56.919Z,99711.41
2023-06-19T21:31:24.604Z,99721.09
2023-06-19T21:33:52.050Z,99714.31
2023-06-19T21:36:19.540Z,99716.81
2023-06-19T21:38:47.287Z,99717.97
2023-06-19T21:41:14.686Z,99713.47
2023-06-19T21:43:42.101Z,99720.06
2023-06-19T21:46:09.739Z,99728.47
2023-06-19T21:48:37.254Z,99724.31
2023-06-19T21:51:04.631Z,99724.03
2023-06-19T21:53:32.302Z,99717.41
2023-06-19T21:55:59.917Z,99726.25
2023-06-19T21:58:27.422Z,99721.00
2023-06-19T22:00:55.081Z,99721.00
2023-06-19T22:03:22.834Z,99729.06
2023-06-19T22:05:50.332Z,99717.66
2023-06-19T22:08:22.359Z,99728.94
2023-06-19T22:10:55.108Z,99728.25
2023-06-19T22:13:22.464Z,99731.31
2023-06-19T22:15:49.888Z,99741.63
2023-06-19T22:18:19.268Z,99739.56
2023-06-19T22:20:46.694Z,99739.09
2023-06-19T22:23:14.070Z,99730.22
2023-06-19T22:25:42.216Z,99735.56
2023-06-19T22:28:09.585Z,99737.28
2023-06-19T22:30:37.020Z,99739.91
2023-06-19T22:33:06.895Z,99744.44
2023-06-19T22:35:34.378Z,99746.03
2023-06-19T22:38:01.757Z,99735.22
2023-06-19T22:40:29.715Z,99745.09
2023-06-19T22:42:57.112Z,99747.34
2023-06-19T22:45:25.088Z,99752.59
2023-06-19T22:47:53.038Z,99743.19
2023-06-19T22:50:20.479Z,99751.47
2023-06-19T22:52:47.892Z,99744.28
2023-06-19T22:55:15.535Z,99750.88
2023-06-19T22:57:42.914Z,99746.00
2023-06-19T23:00:13.780Z,99747.28
2023-06-19T23:02:45.445Z,99745.75
2023-06-19T23:05:13.612Z,99740.56
2023-06-19T23:07:42.093Z,99734.41
2023-06-19T23:10:09.875Z,99734.06
2023-06-19T23:12:37.514Z,99734.47
2023-06-19T23:15:07.719Z,99739.66
2023-06-19T23:17:35.600Z,99732.47
2023-06-19T23:20:03.809Z,99727.22
2023-06-19T23:22:31.505Z,99727.50
2023-06-19T23:25:01.544Z,99727.91
2023-06-19T23:27:29.140Z,99727.37
2023-06-19T23:29:56.780Z,99731.00
2023-06-19T23:32:24.184Z,99722.78
2023-06-19T23:34:51.710Z,99720.88
2023-06-19T23:37:19.374Z,99722.81
2023-06-19T23:39:46.741Z,99714.25
2023-06-19T23:42:14.186Z,99715.56
2023-06-19T23:44:41.910Z,99706.75
2023-06-19T23:47:09.516Z,99714.06
2023-06-19T23:49:39.239Z,99711.44
2023-06-19T23:52:07.000Z,99722.03
2023-06-19T23:54:34.455Z,99725.22
2023-06-19T23:57:01.829Z,99714.34
2023-06-19T23:59:29.527Z,99725.41
